Time;durP1;ratioP1;P1;durP2;ratioP2;P2;SDS_P1;SDS_P2;PMS_P1;PMS_P2;Temp;Humidity;BMP_temperature;BMP_pressure;BME280_temperature;BME280_humidity;BME280_pressure;Samples;Min_cycle;Max_cycle;Signal;HPM_P1;HPM_P2
2022/09/22 00:04:28;;;;;;;1.00;0.75;;;;;;;;;;10419830;28;20038;-49
2022/09/22 00:09:28;;;;;;;2.43;0.80;;;;;;;;;;10419774;28;20030;-50
2022/09/22 00:14:29;;;;;;;1.23;0.88;;;;;;;;;;10419359;28;20037;-50
2022/09/22 00:19:31;;;;;;;1.97;1.00;;;;;;;;;;10419917;28;20083;-49
2022/09/22 00:24:33;;;;;;;1.92;0.90;;;;;;;;;;10419062;28;20469;-50
2022/09/22 00:29:34;;;;;;;4.95;1.00;;;;;;;;;;10419530;28;20029;-50
2022/09/22 00:34:35;;;;;;;1.63;0.98;;;;;;;;;;10418362;28;20057;-50
2022/09/22 00:39:35;;;;;;;1.13;0.80;;;;;;;;;;10419144;28;20117;-50
2022/09/22 00:44:38;;;;;;;1.10;0.68;;;;;;;;;;10418180;28;20113;-49
2022/09/22 00:49:51;;;;;;;4.57;0.80;;;;;;;;;;10417895;28;20025;-49
2022/09/22 00:54:55;;;;;;;1.05;0.85;;;;;;;;;;10416970;28;20092;-49
2022/09/22 00:59:56;;;;;;;1.73;0.77;;;;;;;;;;10417610;28;20112;-50
2022/09/22 01:04:57;;;;;;;2.38;1.02;;;;;;;;;;10417468;28;20104;-49
2022/09/22 01:09:58;;;;;;;3.88;0.90;;;;;;;;;;10417836;28;20026;-51
2022/09/22 01:15:25;;;;;;;2.78;1.00;;;;;;;;;;10416969;28;20037;-50
2022/09/22 01:20:35;;;;;;;1.10;0.82;;;;;;;;;;10416964;28;20397;-50
2022/09/22 01:25:54;;;;;;;1.38;0.93;;;;;;;;;;10416709;28;20029;-50
2022/09/22 01:30:59;;;;;;;1.00;0.80;;;;;;;;;;10416542;28;20032;-49
2022/09/22 01:36:18;;;;;;;3.00;1.05;;;;;;;;;;10416117;28;20076;-49
2022/09/22 01:41:22;;;;;;;0.85;0.80;;;;;;;;;;10416136;28;20032;-50
2022/09/22 01:46:35;;;;;;;2.95;0.75;;;;;;;;;;10416067;28;20167;-51
2022/09/22 01:51:40;;;;;;;0.90;0.70;;;;;;;;;;10416549;28;20032;-50
2022/09/22 01:56:43;;;;;;;1.30;1.10;;;;;;;;;;10416243;28;20030;-52
2022/09/22 02:01:48;;;;;;;0.90;0.77;;;;;;;;;;10416142;28;20113;-53
2022/09/22 02:06:53;;;;;;;2.50;0.60;;;;;;;;;;10415394;28;20029;-51
2022/09/22 02:11:54;;;;;;;0.70;0.70;;;;;;;;;;10415919;28;20109;-52
2022/09/22 02:16:56;;;;;;;1.13;0.90;;;;;;;;;;10415137;28;20107;-54
2022/09/22 02:21:57;;;;;;;2.97;1.08;;;;;;;;;;10415053;28;20109;-55
2022/09/22 02:26:59;;;;;;;2.30;0.80;;;;;;;;;;10415049;28;20044;-51
2022/09/22 02:32:03;;;;;;;2.03;1.05;;;;;;;;;;10414765;28;20034;-54
2022/09/22 02:37:07;;;;;;;3.90;0.88;;;;;;;;;;10415410;28;20065;-54
2022/09/22 02:42:26;;;;;;;1.38;0.98;;;;;;;;;;10414703;28;20017;-52
2022/09/22 02:47:39;;;;;;;1.95;0.88;;;;;;;;;;10414695;28;20423;-52
2022/09/22 02:52:40;;;;;;;1.77;0.75;;;;;;;;;;10414440;28;20368;-55
2022/09/22 02:57:42;;;;;;;0.70;0.70;;;;;;;;;;10414527;28;20109;-52
2022/09/22 03:02:43;;;;;;;1.23;0.98;;;;;;;;;;10414316;28;20038;-50
2022/09/22 03:07:43;;;;;;;1.60;0.67;;;;;;;;;;10414284;28;20030;-49
2022/09/22 03:12:44;;;;;;;0.70;0.70;;;;;;;;;;10414092;28;20033;-49
2022/09/22 03:17:46;;;;;;;1.17;0.70;;;;;;;;;;10416880;28;20029;-50
2022/09/22 03:22:46;;;;;;;3.45;0.95;;;;;;;;;;10421466;28;20025;-49
2022/09/22 03:27:47;;;;;;;1.02;0.95;;;;;;;;;;10421298;28;20108;-49
2022/09/22 03:32:48;;;;;;;0.93;0.80;;;;;;;;;;10421133;28;20053;-49
2022/09/22 03:37:48;;;;;;;1.17;0.90;;;;;;;;;;10421536;28;20032;-49
2022/09/22 03:42:50;;;;;;;1.15;0.80;;;;;;;;;;10421408;28;20033;-49
2022/09/22 03:47:53;;;;;;;2.08;0.70;;;;;;;;;;10420645;28;20029;-49
2022/09/22 03:52:54;;;;;;;1.10;0.95;;;;;;;;;;10420329;28;20037;-49
2022/09/22 03:57:55;;;;;;;1.00;0.90;;;;;;;;;;10420877;28;20034;-50
2022/09/22 04:02:56;;;;;;;0.80;0.80;;;;;;;;;;10420403;28;20032;-48
2022/09/22 04:07:56;;;;;;;0.85;0.77;;;;;;;;;;10420461;28;20056;-48
2022/09/22 04:12:57;;;;;;;0.70;0.70;;;;;;;;;;10420125;28;20039;-48
2022/09/22 04:17:58;;;;;;;3.42;0.90;;;;;;;;;;10419419;28;20029;-49
2022/09/22 04:22:59;;;;;;;0.85;0.73;;;;;;;;;;10419747;28;20116;-49
2022/09/22 04:27:59;;;;;;;1.38;0.70;;;;;;;;;;10417873;28;20392;-50
2022/09/22 04:33:00;;;;;;;0.70;0.70;;;;;;;;;;10418659;28;20041;-50
2022/09/22 04:38:01;;;;;;;0.73;0.70;;;;;;;;;;10418658;28;20472;-50
2022/09/22 04:43:02;;;;;;;2.72;0.80;;;;;;;;;;10418976;28;20065;-49
2022/09/22 04:48:03;;;;;;;1.08;0.80;;;;;;;;;;10418786;28;20030;-48
2022/09/22 04:53:05;;;;;;;0.70;0.70;;;;;;;;;;10418504;28;20025;-51
2022/09/22 04:58:06;;;;;;;0.93;0.60;;;;;;;;;;10417820;28;20036;-53
2022/09/22 05:03:08;;;;;;;0.90;0.70;;;;;;;;;;10418730;28;20048;-63
2022/09/22 05:08:09;;;;;;;2.83;0.70;;;;;;;;;;10417403;28;20108;-64
2022/09/22 05:13:10;;;;;;;0.60;0.60;;;;;;;;;;10417060;28;20112;-63
2022/09/22 05:18:11;;;;;;;1.08;0.70;;;;;;;;;;10417039;28;20080;-48
2022/09/22 05:23:11;;;;;;;5.88;0.82;;;;;;;;;;10416632;28;20061;-54
2022/09/22 05:28:12;;;;;;;0.80;0.80;;;;;;;;;;10408956;28;20026;-50
2022/09/22 05:33:12;;;;;;;4.23;0.80;;;;;;;;;;10384313;28;20129;-50
2022/09/22 05:38:13;;;;;;;7.43;1.00;;;;;;;;;;10393872;28;20025;-51
2022/09/22 05:43:13;;;;;;;4.90;0.83;;;;;;;;;;10379733;28;20171;-51
2022/09/22 05:48:13;;;;;;;3.22;0.88;;;;;;;;;;10402320;28;20025;-53
2022/09/22 05:53:14;;;;;;;7.03;1.33;;;;;;;;;;10386084;28;20026;-49
2022/09/22 05:58:14;;;;;;;5.32;1.25;;;;;;;;;;10387382;28;20034;-48
2022/09/22 06:03:15;;;;;;;5.55;1.10;;;;;;;;;;10400555;28;20172;-50
2022/09/22 06:08:15;;;;;;;1.85;1.00;;;;;;;;;;10378947;28;20479;-49
2022/09/22 06:13:15;;;;;;;7.05;0.93;;;;;;;;;;10394478;28;20431;-49
2022/09/22 06:18:19;;;;;;;6.65;1.30;;;;;;;;;;10393377;28;20113;-50
2022/09/22 06:23:20;;;;;;;4.53;1.20;;;;;;;;;;10370509;28;20433;-51
2022/09/22 06:28:20;;;;;;;4.63;1.20;;;;;;;;;;10377540;28;20025;-51
2022/09/22 06:33:22;;;;;;;8.73;1.23;;;;;;;;;;10381040;28;20184;-54
2022/09/22 06:38:30;;;;;;;10.00;1.50;;;;;;;;;;10388697;28;20492;-53
2022/09/22 06:43:36;;;;;;;6.20;1.73;;;;;;;;;;10390841;28;20026;-52
2022/09/22 06:48:50;;;;;;;5.25;1.50;;;;;;;;;;10386217;28;20073;-60
2022/09/22 06:53:57;;;;;;;6.55;1.27;;;;;;;;;;10384191;28;20488;-54
2022/09/22 06:58:57;;;;;;;4.18;1.58;;;;;;;;;;10405109;28;20013;-54
2022/09/22 07:03:58;;;;;;;6.57;1.30;;;;;;;;;;10407625;28;20048;-56
2022/09/22 07:08:59;;;;;;;5.38;1.30;;;;;;;;;;10408007;28;20025;-50
2022/09/22 07:14:00;;;;;;;6.40;1.27;;;;;;;;;;10409458;28;20520;-60
2022/09/22 07:19:00;;;;;;;2.60;1.73;;;;;;;;;;10397423;28;20025;-55
2022/09/22 07:24:01;;;;;;;5.03;1.20;;;;;;;;;;10405611;28;20038;-51
2022/09/22 07:29:07;;;;;;;4.18;1.02;;;;;;;;;;10398740;28;20025;-54
2022/09/22 07:34:07;;;;;;;8.35;1.60;;;;;;;;;;10374271;28;20042;-50
2022/09/22 07:39:09;;;;;;;6.87;1.50;;;;;;;;;;10402038;28;20034;-54
2022/09/22 07:49:30;;;;;;;6.38;1.67;;;;;;;;;;10400780;28;20210;-53
2022/09/22 07:54:33;;;;;;;8.35;1.40;;;;;;;;;;10397646;28;20165;-56
2022/09/22 07:59:38;;;;;;;7.95;1.30;;;;;;;;;;10394584;28;20029;-55
2022/09/22 08:04:39;;;;;;;11.13;1.63;;;;;;;;;;10384789;28;20232;-54
2022/09/22 08:09:40;;;;;;;6.90;1.33;;;;;;;;;;10390398;28;20117;-54
2022/09/22 08:14:40;;;;;;;4.13;1.25;;;;;;;;;;10387448;28;20037;-53
2022/09/22 08:19:41;;;;;;;2.38;1.35;;;;;;;;;;10388989;28;20029;-59
2022/09/22 08:24:44;;;;;;;5.05;1.20;;;;;;;;;;10400619;28;20040;-49
2022/09/22 08:29:47;;;;;;;3.97;1.15;;;;;;;;;;10392783;28;20468;-56
2022/09/22 08:34:47;;;;;;;3.28;1.30;;;;;;;;;;10396563;28;20058;-53
2022/09/22 08:39:48;;;;;;;8.10;1.27;;;;;;;;;;10383838;28;20622;-48
2022/09/22 08:45:08;;;;;;;5.75;1.15;;;;;;;;;;10392335;28;20412;-53
2022/09/22 08:55:43;;;;;;;1.58;1.30;;;;;;;;;;10378503;28;20037;-61
2022/09/22 09:00:55;;;;;;;4.03;1.53;;;;;;;;;;10384412;28;20026;-50
2022/09/22 09:06:15;;;;;;;3.13;1.17;;;;;;;;;;10384432;28;20071;-51
2022/09/22 09:11:15;;;;;;;1.67;1.23;;;;;;;;;;10399429;28;20415;-54
2022/09/22 09:16:21;;;;;;;3.38;1.35;;;;;;;;;;10380830;28;20034;-54
2022/09/22 09:21:23;;;;;;;5.78;1.30;;;;;;;;;;10388373;28;20148;-55
2022/09/22 09:26:25;;;;;;;1.70;1.00;;;;;;;;;;10393318;28;20017;-59
2022/09/22 09:31:31;;;;;;;4.45;1.33;;;;;;;;;;10382042;28;20101;-49
2022/09/22 09:36:34;;;;;;;7.93;1.30;;;;;;;;;;10388670;28;20033;-48
2022/09/22 09:41:35;;;;;;;2.97;1.10;;;;;;;;;;10404034;28;20129;-58
2022/09/22 09:46:35;;;;;;;3.42;1.30;;;;;;;;;;10385876;28;20393;-60
2022/09/22 09:51:37;;;;;;;3.35;1.30;;;;;;;;;;10390193;28;20144;-49
2022/09/22 09:56:58;;;;;;;1.73;1.00;;;;;;;;;;10395571;28;20435;-52
2022/09/22 10:01:59;;;;;;;1.80;1.35;;;;;;;;;;10386448;28;20445;-49
2022/09/22 10:07:14;;;;;;;1.67;1.10;;;;;;;;;;10406382;28;20480;-48
2022/09/22 10:12:20;;;;;;;2.63;1.10;;;;;;;;;;10393287;28;20029;-48
2022/09/22 10:17:28;;;;;;;1.35;1.00;;;;;;;;;;10377819;28;20037;-50
2022/09/22 10:22:28;;;;;;;1.10;1.00;;;;;;;;;;10406450;28;20572;-51
2022/09/22 10:27:29;;;;;;;4.32;1.40;;;;;;;;;;10397352;28;20039;-49
2022/09/22 10:32:30;;;;;;;1.00;0.90;;;;;;;;;;10414707;28;20046;-55
2022/09/22 10:37:30;;;;;;;1.23;0.85;;;;;;;;;;10401234;28;20040;-48
2022/09/22 10:42:32;;;;;;;4.88;1.60;;;;;;;;;;10385531;28;20117;-53
2022/09/22 10:47:32;;;;;;;1.58;1.02;;;;;;;;;;10400697;28;20519;-49
2022/09/22 10:52:36;;;;;;;2.07;1.10;;;;;;;;;;10382270;28;20022;-48
2022/09/22 10:57:36;;;;;;;4.35;1.20;;;;;;;;;;10385705;28;20032;-53
2022/09/22 11:02:51;;;;;;;1.63;0.90;;;;;;;;;;10394213;28;20021;-48
2022/09/22 11:13:10;;;;;;;1.05;0.95;;;;;;;;;;10384691;28;20396;-53
2022/09/22 11:18:17;;;;;;;1.05;0.85;;;;;;;;;;10399660;28;20022;-50
2022/09/22 11:23:20;;;;;;;2.33;0.85;;;;;;;;;;10393762;28;20078;-49
2022/09/22 11:28:23;;;;;;;1.85;1.05;;;;;;;;;;10397300;28;20029;-60
2022/09/22 11:33:26;;;;;;;3.95;1.23;;;;;;;;;;10401474;28;20088;-52
2022/09/22 11:38:26;;;;;;;2.95;1.20;;;;;;;;;;10388658;28;20026;-54
2022/09/22 11:43:26;;;;;;;1.17;1.00;;;;;;;;;;10388599;28;20091;-55
2022/09/22 11:48:32;;;;;;;2.70;1.05;;;;;;;;;;10385685;28;20388;-54
2022/09/22 11:53:39;;;;;;;1.98;1.25;;;;;;;;;;10401444;28;20156;-53
2022/09/22 11:58:39;;;;;;;4.03;1.00;;;;;;;;;;10411230;28;20025;-58
2022/09/22 12:04:09;;;;;;;3.38;1.00;;;;;;;;;;10381647;28;20477;-54
2022/09/22 12:09:38;;;;;;;1.92;1.13;;;;;;;;;;10400992;28;20044;-50
2022/09/22 12:14:39;;;;;;;4.35;1.17;;;;;;;;;;10387760;28;20061;-49
2022/09/22 12:19:46;;;;;;;4.03;1.23;;;;;;;;;;10379637;28;20032;-53
2022/09/22 12:24:46;;;;;;;2.53;1.15;;;;;;;;;;10397256;28;20028;-48
2022/09/22 12:30:00;;;;;;;1.42;0.88;;;;;;;;;;10382825;28;20032;-53
2022/09/22 12:35:01;;;;;;;3.45;1.25;;;;;;;;;;10396428;28;20069;-54
2022/09/22 12:40:22;;;;;;;2.42;1.10;;;;;;;;;;10375415;28;20175;-53
2022/09/22 12:45:28;;;;;;;3.60;1.10;;;;;;;;;;10399409;28;20052;-48
2022/09/22 12:50:31;;;;;;;1.38;1.05;;;;;;;;;;10399236;28;20388;-54
2022/09/22 12:55:39;;;;;;;1.23;0.90;;;;;;;;;;10390178;28;20033;-49
2022/09/22 13:00:41;;;;;;;3.03;1.30;;;;;;;;;;10397258;28;20037;-62
2022/09/22 13:05:42;;;;;;;2.08;1.17;;;;;;;;;;10396198;28;20030;-54
2022/09/22 13:10:49;;;;;;;3.05;1.10;;;;;;;;;;10399531;28;20022;-53
2022/09/22 13:15:53;;;;;;;1.02;0.90;;;;;;;;;;10386087;28;20045;-53
2022/09/22 13:20:53;;;;;;;3.67;0.95;;;;;;;;;;10389998;28;20354;-54
2022/09/22 13:25:53;;;;;;;5.70;1.17;;;;;;;;;;10382290;28;20033;-50
2022/09/22 13:30:58;;;;;;;1.85;1.38;;;;;;;;;;10380861;28;20378;-54
2022/09/22 13:36:07;;;;;;;3.63;1.13;;;;;;;;;;10394044;28;20041;-51
2022/09/22 13:41:12;;;;;;;5.25;1.33;;;;;;;;;;10391280;28;20030;-56
2022/09/22 13:46:38;;;;;;;2.05;1.00;;;;;;;;;;10393843;28;20034;-51
2022/09/22 13:51:39;;;;;;;4.90;1.35;;;;;;;;;;10388951;28;20049;-54
2022/09/22 13:56:40;;;;;;;4.37;1.30;;;;;;;;;;10383601;28;20039;-48
2022/09/22 14:01:51;;;;;;;1.67;1.00;;;;;;;;;;10403612;28;20028;-53
2022/09/22 14:06:57;;;;;;;4.05;1.55;;;;;;;;;;10379751;28;20116;-52
2022/09/22 14:11:57;;;;;;;5.43;1.05;;;;;;;;;;10389198;28;20026;-48
2022/09/22 14:17:01;;;;;;;1.57;1.00;;;;;;;;;;10387120;28;20026;-60
2022/09/22 14:22:03;;;;;;;1.50;1.10;;;;;;;;;;10405679;28;20518;-62
2022/09/22 14:27:04;;;;;;;3.08;1.25;;;;;;;;;;10400737;28;20412;-47
2022/09/22 14:32:05;;;;;;;2.78;1.10;;;;;;;;;;10396568;28;20559;-52
2022/09/22 14:37:23;;;;;;;2.85;1.00;;;;;;;;;;10389583;28;20018;-53
2022/09/22 14:42:27;;;;;;;1.90;1.10;;;;;;;;;;10396943;28;20484;-53
2022/09/22 14:47:28;;;;;;;2.65;1.45;;;;;;;;;;10396857;28;20036;-53
2022/09/22 14:52:31;;;;;;;9.10;1.70;;;;;;;;;;10395386;28;20032;-57
2022/09/22 14:57:31;;;;;;;18.10;1.73;;;;;;;;;;10404156;28;20037;-58
2022/09/22 15:02:35;;;;;;;9.00;1.40;;;;;;;;;;10391300;28;20033;-58
2022/09/22 15:07:37;;;;;;;12.45;1.35;;;;;;;;;;10397877;28;20845;-51
2022/09/22 15:12:43;;;;;;;19.98;2.47;;;;;;;;;;10396352;28;20476;-52
2022/09/22 15:23:46;;;;;;;7.78;1.48;;;;;;;;;;10397937;28;20033;-51
2022/09/22 15:28:48;;;;;;;5.07;1.73;;;;;;;;;;10405351;28;20037;-45
2022/09/22 15:33:48;;;;;;;5.32;1.40;;;;;;;;;;10407759;28;20045;-51
2022/09/22 15:38:49;;;;;;;5.80;1.50;;;;;;;;;;10400057;28;20428;-47
2022/09/22 15:43:50;;;;;;;5.57;1.13;;;;;;;;;;10395153;28;20018;-46
2022/09/22 15:48:50;;;;;;;13.63;1.33;;;;;;;;;;10391879;28;20505;-46
2022/09/22 15:53:51;;;;;;;6.32;1.40;;;;;;;;;;10383500;28;20477;-55
2022/09/22 15:58:52;;;;;;;3.15;1.15;;;;;;;;;;10400781;28;20094;-45
2022/09/22 16:03:53;;;;;;;7.00;1.60;;;;;;;;;;10391567;28;20042;-59
2022/09/22 16:08:54;;;;;;;3.08;1.25;;;;;;;;;;10383782;28;20033;-45
2022/09/22 16:13:59;;;;;;;3.90;1.73;;;;;;;;;;10384987;28;20086;-47
2022/09/22 16:19:00;;;;;;;3.72;1.20;;;;;;;;;;10380621;28;20504;-49
2022/09/22 16:24:07;;;;;;;3.75;1.10;;;;;;;;;;10385481;28;20126;-45
2022/09/22 16:29:08;;;;;;;2.50;1.40;;;;;;;;;;10372767;28;20033;-46
2022/09/22 16:34:10;;;;;;;8.82;1.27;;;;;;;;;;10385985;28;20057;-47
2022/09/22 16:39:11;;;;;;;5.32;1.40;;;;;;;;;;10404606;28;20117;-46
2022/09/22 16:44:11;;;;;;;4.70;1.27;;;;;;;;;;10398534;28;20036;-45
2022/09/22 16:49:15;;;;;;;4.88;1.25;;;;;;;;;;10397695;28;20056;-46
2022/09/22 16:54:17;;;;;;;4.53;1.25;;;;;;;;;;10396623;28;20042;-51
2022/09/22 16:59:21;;;;;;;2.10;1.08;;;;;;;;;;10387878;28;20171;-50
2022/09/22 17:04:22;;;;;;;1.40;1.10;;;;;;;;;;10399932;28;20026;-46
2022/09/22 17:09:23;;;;;;;1.63;1.15;;;;;;;;;;10383408;28;20033;-46
2022/09/22 17:14:24;;;;;;;6.95;1.35;;;;;;;;;;10417895;23;20437;-48
2022/09/22 17:19:26;;;;;;;3.30;1.27;;;;;;;;;;10431382;28;20132;-49
2022/09/22 17:24:27;;;;;;;3.40;1.40;;;;;;;;;;10408333;28;20025;-48
2022/09/22 17:29:31;;;;;;;1.55;1.25;;;;;;;;;;10406078;28;20112;-49
2022/09/22 17:34:33;;;;;;;2.10;1.08;;;;;;;;;;10407999;28;20388;-49
2022/09/22 17:39:34;;;;;;;5.68;1.30;;;;;;;;;;10389362;28;20033;-50
2022/09/22 17:44:35;;;;;;;3.30;1.23;;;;;;;;;;10400534;28;20029;-49
2022/09/22 17:55:13;;;;;;;1.23;1.13;;;;;;;;;;10400951;28;20084;-49
2022/09/22 18:00:20;;;;;;;2.75;1.30;;;;;;;;;;10406226;28;20037;-48
2022/09/22 18:05:25;;;;;;;2.10;1.30;;;;;;;;;;10397662;28;20053;-49
2022/09/22 18:10:32;;;;;;;2.22;1.20;;;;;;;;;;10394661;28;20041;-48
2022/09/22 18:15:32;;;;;;;1.77;1.00;;;;;;;;;;10405260;28;20037;-67
2022/09/22 18:20:33;;;;;;;9.07;1.55;;;;;;;;;;10405935;28;20037;-50
2022/09/22 18:25:34;;;;;;;10.10;2.13;;;;;;;;;;10405543;28;20049;-50
2022/09/22 18:30:35;;;;;;;7.32;1.65;;;;;;;;;;10398850;28;20044;-50
2022/09/22 18:35:36;;;;;;;9.15;2.08;;;;;;;;;;10395886;28;20414;-51
2022/09/22 18:40:36;;;;;;;8.07;2.80;;;;;;;;;;10392375;28;20071;-50
2022/09/22 18:45:37;;;;;;;3.95;2.28;;;;;;;;;;10405070;28;20029;-50
2022/09/22 18:50:37;;;;;;;7.22;2.70;;;;;;;;;;10411578;28;20033;-50
2022/09/22 18:55:38;;;;;;;14.18;2.45;;;;;;;;;;10411632;28;20037;-50
2022/09/22 19:00:39;;;;;;;4.20;2.13;;;;;;;;;;10408355;28;20044;-51
2022/09/22 19:05:40;;;;;;;5.88;1.88;;;;;;;;;;10408735;28;20021;-51
2022/09/22 19:10:40;;;;;;;2.83;1.80;;;;;;;;;;10404467;28;20099;-50
2022/09/22 19:15:42;;;;;;;2.58;2.13;;;;;;;;;;10410591;28;20041;-50
2022/09/22 19:20:43;;;;;;;2.88;2.13;;;;;;;;;;10405044;28;20480;-48
2022/09/22 19:25:45;;;;;;;2.75;1.75;;;;;;;;;;10406605;28;20033;-49
2022/09/22 19:30:45;;;;;;;6.43;2.42;;;;;;;;;;10382432;28;20057;-57
2022/09/22 19:35:46;;;;;;;7.38;2.13;;;;;;;;;;10388132;28;20037;-55
2022/09/22 19:40:46;;;;;;;8.30;2.13;;;;;;;;;;10404792;28;20032;-49
2022/09/22 19:45:47;;;;;;;7.75;1.70;;;;;;;;;;10404584;28;20079;-52
2022/09/22 19:50:47;;;;;;;3.33;1.80;;;;;;;;;;10406957;28;20030;-52
2022/09/22 19:55:48;;;;;;;13.80;2.67;;;;;;;;;;10403527;28;20025;-48
2022/09/22 20:00:50;;;;;;;6.53;2.00;;;;;;;;;;10396493;28;20029;-50
2022/09/22 20:05:52;;;;;;;6.55;1.98;;;;;;;;;;10397561;28;20025;-51
2022/09/22 20:10:54;;;;;;;7.30;2.28;;;;;;;;;;10402453;28;20029;-55
2022/09/22 20:15:57;;;;;;;12.80;1.92;;;;;;;;;;10400475;28;20917;-49
2022/09/22 20:21:01;;;;;;;10.70;2.35;;;;;;;;;;10403800;28;20221;-49
2022/09/22 20:26:03;;;;;;;8.13;2.10;;;;;;;;;;10409290;28;20449;-49
2022/09/22 20:31:03;;;;;;;3.92;2.30;;;;;;;;;;10405596;28;20029;-50
2022/09/22 20:36:04;;;;;;;36.08;2.90;;;;;;;;;;10408138;28;20036;-49
2022/09/22 20:41:05;;;;;;;15.93;2.60;;;;;;;;;;10401957;28;20036;-63
2022/09/22 20:46:08;;;;;;;14.45;2.40;;;;;;;;;;10401264;28;20053;-52
2022/09/22 20:51:08;;;;;;;26.42;2.30;;;;;;;;;;10401203;28;20253;-61
2022/09/22 20:56:10;;;;;;;13.48;2.17;;;;;;;;;;10405479;28;20185;-61
2022/09/22 21:01:14;;;;;;;26.38;2.13;;;;;;;;;;10401459;28;20029;-57
2022/09/22 21:06:16;;;;;;;13.63;2.55;;;;;;;;;;10400526;28;20496;-60
2022/09/22 21:11:19;;;;;;;23.23;2.33;;;;;;;;;;10397626;28;21158;-59
2022/09/22 21:16:19;;;;;;;11.00;2.72;;;;;;;;;;10397359;28;20131;-59
2022/09/22 21:21:21;;;;;;;19.92;2.60;;;;;;;;;;10398028;28;20535;-61
2022/09/22 21:26:23;;;;;;;11.48;2.55;;;;;;;;;;10396446;28;20161;-57
2022/09/22 21:31:23;;;;;;;8.55;2.63;;;;;;;;;;10404887;28;20295;-63
2022/09/22 21:36:25;;;;;;;10.48;2.30;;;;;;;;;;10399858;28;20045;-62
2022/09/22 21:41:29;;;;;;;18.30;2.72;;;;;;;;;;10396656;28;20048;-60
2022/09/22 21:46:30;;;;;;;22.85;2.63;;;;;;;;;;10401230;28;20480;-58
2022/09/22 21:51:35;;;;;;;23.88;2.70;;;;;;;;;;10403901;28;20108;-62
2022/09/22 21:56:36;;;;;;;15.63;2.38;;;;;;;;;;10398790;28;20039;-61
2022/09/22 22:01:38;;;;;;;7.60;2.28;;;;;;;;;;10398212;28;20031;-62
2022/09/22 22:06:41;;;;;;;14.15;2.53;;;;;;;;;;10401825;28;20057;-55
2022/09/22 22:11:48;;;;;;;6.80;2.40;;;;;;;;;;10394514;28;20490;-50
2022/09/22 22:16:51;;;;;;;15.38;2.70;;;;;;;;;;10368919;28;20128;-48
2022/09/22 22:21:53;;;;;;;7.57;1.88;;;;;;;;;;10401927;28;20036;-57
2022/09/22 22:27:06;;;;;;;15.52;2.22;;;;;;;;;;10406564;28;20029;-57
2022/09/22 22:32:09;;;;;;;6.60;2.15;;;;;;;;;;10406434;28;20480;-62
2022/09/22 22:37:10;;;;;;;8.00;2.10;;;;;;;;;;10396174;28;20030;-61
2022/09/22 22:42:10;;;;;;;7.13;2.10;;;;;;;;;;10395569;28;20021;-62
2022/09/22 22:47:11;;;;;;;8.60;1.92;;;;;;;;;;10391736;28;20026;-60
2022/09/22 22:52:12;;;;;;;15.70;2.20;;;;;;;;;;10387714;28;20032;-62
2022/09/22 22:57:13;;;;;;;9.02;2.10;;;;;;;;;;10406311;28;20392;-61
2022/09/22 23:02:13;;;;;;;6.03;1.85;;;;;;;;;;10402494;28;20028;-60
2022/09/22 23:07:14;;;;;;;6.97;2.28;;;;;;;;;;10405574;28;20468;-59
2022/09/22 23:12:17;;;;;;;10.27;2.33;;;;;;;;;;10404422;28;20653;-48
2022/09/22 23:17:17;;;;;;;8.38;1.92;;;;;;;;;;10406298;28;20629;-48
2022/09/22 23:22:21;;;;;;;8.95;1.90;;;;;;;;;;10402561;28;20141;-48
2022/09/22 23:27:22;;;;;;;4.40;1.50;;;;;;;;;;10405694;28;20112;-61
2022/09/22 23:32:23;;;;;;;6.78;2.15;;;;;;;;;;10404356;28;20022;-61
2022/09/22 23:37:23;;;;;;;8.40;2.20;;;;;;;;;;10411737;28;20045;-48
2022/09/22 23:42:24;;;;;;;5.75;1.85;;;;;;;;;;10412386;28;20032;-47
2022/09/22 23:47:25;;;;;;;4.57;1.67;;;;;;;;;;10413104;28;20034;-48
2022/09/22 23:52:26;;;;;;;10.70;2.00;;;;;;;;;;10412076;28;20029;-49
2022/09/22 23:57:26;;;;;;;5.82;1.90;;;;;;;;;;10412112;28;20392;-48
